createdAt,value
2018-06-15T00:00:54.696Z,7.10
2018-06-15T00:01:54.699Z,5.70
2018-06-15T00:02:54.699Z,6.00
2018-06-15T00:03:54.701Z,4.40
2018-06-15T00:04:54.699Z,4.60
2018-06-15T00:05:54.708Z,5.60
2018-06-15T00:06:54.701Z,4.90
2018-06-15T00:07:54.703Z,4.40
2018-06-15T00:08:54.702Z,4.10
2018-06-15T00:09:54.707Z,3.70
2018-06-15T00:10:54.704Z,4.00
2018-06-15T00:11:54.703Z,3.90
2018-06-15T00:12:54.703Z,3.60
2018-06-15T00:13:54.705Z,3.60
2018-06-15T00:14:54.705Z,4.00
2018-06-15T00:15:54.702Z,3.70
2018-06-15T00:16:54.705Z,3.80
2018-06-15T00:17:54.704Z,3.70
2018-06-15T00:18:54.712Z,3.80
2018-06-15T00:19:54.707Z,4.00
2018-06-15T00:20:54.706Z,4.20
2018-06-15T00:21:54.715Z,3.80
2018-06-15T00:22:54.708Z,3.70
2018-06-15T00:23:54.709Z,4.00
2018-06-15T00:24:54.710Z,3.50
2018-06-15T00:25:54.709Z,3.40
2018-06-15T00:26:54.711Z,3.50
2018-06-15T00:27:54.707Z,3.40
2018-06-15T00:28:54.710Z,3.60
2018-06-15T00:29:54.711Z,3.90
2018-06-15T00:30:54.712Z,3.80
2018-06-15T00:31:54.710Z,3.80
2018-06-15T00:32:54.709Z,3.90
2018-06-15T00:33:54.711Z,3.80
2018-06-15T00:34:54.718Z,3.90
2018-06-15T00:35:54.714Z,4.20
2018-06-15T00:36:54.714Z,4.70
2018-06-15T00:37:54.715Z,4.70
2018-06-15T00:38:54.716Z,4.90
2018-06-15T00:39:54.715Z,5.00
2018-06-15T00:40:54.716Z,4.70
2018-06-15T00:41:54.715Z,5.50
2018-06-15T00:42:54.716Z,5.30
2018-06-15T00:43:54.710Z,5.20
2018-06-15T00:44:54.714Z,5.60
2018-06-15T00:45:54.717Z,5.50
2018-06-15T00:46:54.724Z,5.70
2018-06-15T00:47:54.719Z,5.40
2018-06-15T00:48:54.767Z,5.40
2018-06-15T00:49:54.717Z,5.60
2018-06-15T00:50:54.718Z,5.70
2018-06-15T00:51:54.719Z,6.10
2018-06-15T00:52:54.759Z,6.40
2018-06-15T00:53:54.723Z,6.10
2018-06-15T00:54:54.719Z,6.10
2018-06-15T00:55:54.719Z,6.30
2018-06-15T00:56:54.721Z,6.10
2018-06-15T00:57:54.722Z,6.50
2018-06-15T00:58:54.720Z,6.30
2018-06-15T00:59:54.719Z,6.50
2018-06-15T01:00:54.719Z,6.50
2018-06-15T01:01:54.722Z,6.70
2018-06-15T01:02:54.721Z,6.30
2018-06-15T01:03:54.721Z,6.80
2018-06-15T01:04:54.724Z,6.60
2018-06-15T01:05:54.721Z,7.00
2018-06-15T01:06:54.723Z,6.80
2018-06-15T01:07:54.723Z,6.70
2018-06-15T01:08:54.722Z,6.60
2018-06-15T01:09:54.729Z,7.00
2018-06-15T01:10:54.723Z,7.30
2018-06-15T01:11:54.724Z,6.90
2018-06-15T01:12:54.722Z,7.70
2018-06-15T01:13:54.726Z,7.50
2018-06-15T01:14:54.724Z,7.20
2018-06-15T01:15:54.721Z,7.50
2018-06-15T01:16:54.723Z,7.30
2018-06-15T01:17:54.724Z,7.80
2018-06-15T01:18:54.723Z,7.40
2018-06-15T01:19:54.724Z,7.90
2018-06-15T01:20:54.725Z,8.30
2018-06-15T01:21:54.726Z,8.00
2018-06-15T01:22:54.727Z,8.40
2018-06-15T01:23:54.725Z,7.90
2018-06-15T01:24:54.727Z,8.10
2018-06-15T01:25:54.727Z,7.60
2018-06-15T01:26:54.727Z,7.50
2018-06-15T01:27:54.726Z,8.00
2018-06-15T01:28:54.727Z,7.90
2018-06-15T01:29:54.728Z,7.60
2018-06-15T01:30:54.730Z,7.50
2018-06-15T01:31:54.724Z,7.40
2018-06-15T01:32:54.727Z,8.00
2018-06-15T01:33:54.727Z,8.20
2018-06-15T01:34:54.729Z,7.90
2018-06-15T01:35:54.728Z,8.10
2018-06-15T01:36:54.727Z,8.00
2018-06-15T01:37:54.729Z,7.60
2018-06-15T01:38:54.730Z,7.60
2018-06-15T01:39:54.729Z,8.10
2018-06-15T01:40:54.732Z,8.00
2018-06-15T01:41:54.731Z,7.80
2018-06-15T01:42:54.730Z,7.70
2018-06-15T01:43:54.729Z,7.70
2018-06-15T01:44:54.731Z,8.00
2018-06-15T01:45:54.732Z,7.50
2018-06-15T01:46:54.730Z,8.20
2018-06-15T01:47:54.735Z,7.60
2018-06-15T01:48:54.731Z,8.10
2018-06-15T01:49:54.733Z,8.00
2018-06-15T01:50:54.734Z,7.60
2018-06-15T01:51:54.734Z,7.40
2018-06-15T01:52:54.731Z,7.80
2018-06-15T01:53:54.734Z,7.80
2018-06-15T01:54:54.735Z,7.70
2018-06-15T01:55:54.733Z,8.00
2018-06-15T01:56:54.740Z,7.60
2018-06-15T01:57:54.735Z,7.70
2018-06-15T01:58:54.736Z,8.00
2018-06-15T01:59:54.736Z,7.70
2018-06-15T02:00:54.738Z,8.00
2018-06-15T02:01:54.736Z,8.00
2018-06-15T02:02:54.738Z,7.60
2018-06-15T02:03:54.736Z,7.80
2018-06-15T02:04:54.737Z,7.40
2018-06-15T02:05:54.738Z,7.70
2018-06-15T02:06:54.739Z,7.80
2018-06-15T02:07:54.744Z,7.50
2018-06-15T02:08:54.740Z,7.60
2018-06-15T02:09:54.741Z,7.60
2018-06-15T02:10:54.742Z,7.90
2018-06-15T02:11:54.742Z,7.50
2018-06-15T02:12:54.739Z,7.50
2018-06-15T02:13:54.743Z,8.00
2018-06-15T02:14:54.743Z,8.10
2018-06-15T02:15:54.743Z,7.80
2018-06-15T02:16:54.742Z,7.90
2018-06-15T02:17:54.743Z,8.10
2018-06-15T02:18:54.748Z,8.30
2018-06-15T02:19:54.744Z,8.20
2018-06-15T02:20:54.746Z,9.00
2018-06-15T02:21:54.749Z,8.80
2018-06-15T02:22:54.747Z,8.90
2018-06-15T02:23:54.745Z,9.50
2018-06-15T02:24:54.742Z,8.70
2018-06-15T02:25:54.746Z,8.90
2018-06-15T02:26:54.748Z,8.80
2018-06-15T02:27:54.748Z,9.50
2018-06-15T02:28:54.747Z,10.10
2018-06-15T02:29:54.747Z,10.00
2018-06-15T02:30:54.748Z,10.50
2018-06-15T02:31:54.757Z,10.90
2018-06-15T02:32:54.750Z,10.90
2018-06-15T02:33:54.751Z,10.90
2018-06-15T02:34:54.754Z,10.80
2018-06-15T02:35:54.748Z,10.50
2018-06-15T02:36:54.752Z,10.70
2018-06-15T02:37:54.754Z,10.10
2018-06-15T02:38:54.757Z,10.70
2018-06-15T02:39:54.751Z,10.80
2018-06-15T02:40:54.749Z,10.50
2018-06-15T02:41:54.756Z,10.40
2018-06-15T02:42:54.755Z,10.60
2018-06-15T02:43:54.755Z,10.40
2018-06-15T02:44:54.754Z,10.70
2018-06-15T02:45:54.760Z,10.30
2018-06-15T02:46:54.756Z,10.00
2018-06-15T02:47:54.754Z,9.70
2018-06-15T02:48:54.756Z,10.10
2018-06-15T02:49:54.757Z,10.30
2018-06-15T02:50:54.757Z,10.20
2018-06-15T02:51:54.752Z,10.30
2018-06-15T02:52:54.754Z,10.20
2018-06-15T02:53:54.767Z,10.10
2018-06-15T02:54:54.759Z,9.90
2018-06-15T02:55:54.758Z,10.80
2018-06-15T02:56:54.757Z,10.30
2018-06-15T02:57:54.757Z,9.90
2018-06-15T02:58:54.761Z,10.30
2018-06-15T02:59:54.759Z,10.30
2018-06-15T03:00:54.759Z,10.30
2018-06-15T03:01:54.771Z,10.20
2018-06-15T03:02:54.761Z,10.00
2018-06-15T03:03:54.759Z,9.70
2018-06-15T03:04:54.760Z,9.80
2018-06-15T03:05:54.760Z,10.00
2018-06-15T03:06:54.767Z,9.40
2018-06-15T03:07:54.760Z,10.30
2018-06-15T03:08:54.759Z,9.80
2018-06-15T03:09:54.761Z,9.20
2018-06-15T03:10:54.762Z,9.40
2018-06-15T03:11:54.760Z,9.70
2018-06-15T03:12:54.762Z,9.30
2018-06-15T03:13:54.760Z,9.70
2018-06-15T03:14:54.764Z,9.00
2018-06-15T03:15:54.765Z,9.70
2018-06-15T03:16:54.762Z,9.80
2018-06-15T03:17:54.768Z,9.00
2018-06-15T03:18:54.766Z,9.10
2018-06-15T03:19:54.765Z,9.30
2018-06-15T03:20:54.765Z,9.20
2018-06-15T03:21:54.766Z,9.40
2018-06-15T03:22:54.766Z,9.40
2018-06-15T03:23:54.762Z,9.60
2018-06-15T03:24:54.764Z,9.50
2018-06-15T03:25:54.766Z,9.00
2018-06-15T03:26:54.767Z,9.00
2018-06-15T03:27:54.767Z,8.90
2018-06-15T03:28:54.767Z,8.70
2018-06-15T03:29:54.764Z,9.10
2018-06-15T03:30:54.771Z,9.20
2018-06-15T03:31:54.769Z,9.40
2018-06-15T03:32:54.770Z,8.90
2018-06-15T03:33:54.773Z,9.10
2018-06-15T03:34:54.769Z,8.90
2018-06-15T03:35:54.768Z,9.10
2018-06-15T03:36:54.771Z,9.50
2018-06-15T03:37:54.771Z,8.80
2018-06-15T03:38:54.774Z,9.60
2018-06-15T03:39:54.767Z,9.10
2018-06-15T03:40:54.771Z,9.50
2018-06-15T03:41:54.772Z,9.60
2018-06-15T03:42:54.773Z,9.50
2018-06-15T03:43:54.771Z,9.60
2018-06-15T03:44:54.776Z,9.70
2018-06-15T03:45:54.775Z,9.90
2018-06-15T03:46:54.778Z,9.60
2018-06-15T03:47:54.775Z,9.50
2018-06-15T03:48:54.779Z,9.30
2018-06-15T03:49:54.780Z,9.50
2018-06-15T03:50:54.775Z,10.30
2018-06-15T03:51:54.775Z,9.70
2018-06-15T03:52:54.777Z,9.50
2018-06-15T03:53:54.777Z,9.50
2018-06-15T03:54:54.777Z,9.30
2018-06-15T03:55:54.780Z,9.90
2018-06-15T03:56:54.775Z,9.00
2018-06-15T03:57:54.779Z,9.70
2018-06-15T03:58:54.787Z,9.30
2018-06-15T03:59:54.780Z,9.00
2018-06-15T04:00:54.780Z,9.20
2018-06-15T04:01:54.784Z,9.30
2018-06-15T04:02:54.782Z,9.40
2018-06-15T04:03:54.782Z,9.10
2018-06-15T04:04:54.782Z,9.30
2018-06-15T04:05:54.783Z,9.50
2018-06-15T04:06:54.785Z,9.50
2018-06-15T04:07:54.787Z,9.50
2018-06-15T04:08:54.784Z,9.10
2018-06-15T04:09:54.785Z,9.50
2018-06-15T04:10:54.784Z,9.60
2018-06-15T04:11:54.787Z,9.80
2018-06-15T04:12:54.823Z,9.10
2018-06-15T04:13:54.785Z,9.80
2018-06-15T04:14:54.787Z,9.50
2018-06-15T04:15:54.786Z,9.80
2018-06-15T04:16:54.792Z,9.60
2018-06-15T04:17:54.788Z,9.40
2018-06-15T04:18:54.788Z,10.30
2018-06-15T04:19:54.790Z,9.60
2018-06-15T04:20:54.791Z,9.60
2018-06-15T04:21:54.790Z,8.90
2018-06-15T04:22:54.804Z,9.50
2018-06-15T04:23:54.790Z,9.10
2018-06-15T04:24:54.791Z,10.60
2018-06-15T04:25:54.795Z,10.20
2018-06-15T04:26:54.794Z,9.70
2018-06-15T04:27:54.794Z,10.00
2018-06-15T04:28:54.789Z,10.00
2018-06-15T04:29:54.801Z,10.60
2018-06-15T04:30:54.795Z,10.00
2018-06-15T04:31:54.795Z,10.60
2018-06-15T04:32:54.797Z,10.00
2018-06-15T04:33:54.796Z,10.00
2018-06-15T04:34:54.796Z,10.10
2018-06-15T04:35:54.796Z,10.50
2018-06-15T04:36:54.802Z,10.60
2018-06-15T04:37:54.802Z,10.60
2018-06-15T04:38:54.800Z,10.50
2018-06-15T04:39:54.811Z,10.50
2018-06-15T04:40:54.800Z,10.40
2018-06-15T04:41:54.803Z,10.50
2018-06-15T04:42:54.801Z,10.20
2018-06-15T04:43:54.832Z,10.40
2018-06-15T04:44:54.808Z,10.00
2018-06-15T04:45:54.802Z,10.40
2018-06-15T04:46:54.803Z,10.50
2018-06-15T04:47:54.806Z,11.40
2018-06-15T04:48:54.810Z,11.00
2018-06-15T04:49:54.808Z,11.40
2018-06-15T04:50:54.810Z,11.30
2018-06-15T04:51:54.813Z,11.00
2018-06-15T04:52:54.811Z,11.10
2018-06-15T04:53:54.829Z,10.80
2018-06-15T04:54:54.813Z,11.60
2018-06-15T04:55:54.812Z,11.40
2018-06-15T04:56:54.820Z,11.30
2018-06-15T04:57:54.816Z,11.00
2018-06-15T04:58:54.818Z,11.40
2018-06-15T04:59:54.816Z,11.10
2018-06-15T05:00:54.818Z,11.70
2018-06-15T05:01:54.818Z,11.10
2018-06-15T05:02:54.820Z,11.10
2018-06-15T05:03:54.818Z,10.70
2018-06-15T05:04:54.825Z,10.70
2018-06-15T05:05:54.823Z,11.30
2018-06-15T05:06:54.823Z,10.80
2018-06-15T05:07:54.826Z,10.30
2018-06-15T05:08:54.828Z,10.60
2018-06-15T05:09:54.827Z,10.60
2018-06-15T05:10:54.828Z,10.60
2018-06-15T05:11:54.828Z,10.30
2018-06-15T05:12:54.831Z,10.20
2018-06-15T05:13:54.831Z,10.00
2018-06-15T05:14:54.832Z,10.60
2018-06-15T05:15:54.831Z,11.00
2018-06-15T05:16:54.832Z,10.80
2018-06-15T05:17:54.835Z,10.60
2018-06-15T05:18:54.840Z,10.50
2018-06-15T05:19:54.835Z,10.60
2018-06-15T05:20:54.839Z,10.00
2018-06-15T05:21:54.844Z,10.80
2018-06-15T05:22:54.840Z,10.60
2018-06-15T05:23:54.840Z,10.20
2018-06-15T05:24:54.841Z,10.50
2018-06-15T05:25:54.879Z,10.70
2018-06-15T05:26:54.842Z,10.10
2018-06-15T05:27:54.844Z,10.30
2018-06-15T05:28:54.844Z,10.10
2018-06-15T05:29:54.846Z,10.40
2018-06-15T05:30:54.847Z,10.70
2018-06-15T05:31:54.851Z,10.40
2018-06-15T05:32:54.850Z,10.30
2018-06-15T05:33:54.848Z,10.20
2018-06-15T05:34:54.855Z,10.10
2018-06-15T05:35:54.852Z,10.40
2018-06-15T05:36:54.854Z,10.10
2018-06-15T05:37:54.856Z,10.30
2018-06-15T05:38:54.857Z,10.80
2018-06-15T05:39:54.854Z,9.60
2018-06-15T05:40:54.859Z,9.80
2018-06-15T05:41:54.859Z,9.50
2018-06-15T05:42:54.864Z,9.80
2018-06-15T05:43:54.876Z,9.60
2018-06-15T05:44:54.864Z,9.90
2018-06-15T05:45:54.863Z,10.30
2018-06-15T05:46:54.862Z,9.90
2018-06-15T05:47:54.867Z,10.30
2018-06-15T05:48:54.869Z,9.60
2018-06-15T05:49:54.900Z,10.20
2018-06-15T05:50:54.875Z,10.10
2018-06-15T05:51:54.870Z,10.30
2018-06-15T05:52:54.877Z,10.30
2018-06-15T05:53:54.875Z,11.50
2018-06-15T05:54:54.880Z,11.70
2018-06-15T05:55:54.879Z,11.40
2018-06-15T05:56:54.883Z,11.00
2018-06-15T05:57:54.885Z,11.10
2018-06-15T05:58:54.879Z,11.30
2018-06-15T05:59:54.883Z,10.70
2018-06-15T06:00:54.886Z,10.90
2018-06-15T06:01:54.887Z,11.40
2018-06-15T06:02:54.889Z,11.10
2018-06-15T06:03:54.935Z,10.40
2018-06-15T06:04:54.892Z,10.30
2018-06-15T06:05:54.893Z,10.70
2018-06-15T06:06:54.891Z,10.40
2018-06-15T06:07:54.894Z,10.10
2018-06-15T06:08:54.899Z,10.10
2018-06-15T06:09:54.901Z,10.00
2018-06-15T06:10:54.906Z,9.50
2018-06-15T06:11:54.902Z,10.10
2018-06-15T06:12:54.904Z,9.60
2018-06-15T06:13:54.904Z,9.70
2018-06-15T06:14:54.909Z,10.20
2018-06-15T06:15:54.907Z,10.60
2018-06-15T06:16:54.914Z,10.10
2018-06-15T06:17:54.915Z,10.40
2018-06-15T06:18:54.913Z,10.30
2018-06-15T06:19:54.944Z,10.40
2018-06-15T06:20:54.915Z,10.00
2018-06-15T06:21:54.917Z,10.00
2018-06-15T06:22:54.918Z,9.80
2018-06-15T06:23:54.919Z,10.00
2018-06-15T06:24:54.922Z,9.50
2018-06-15T06:25:54.926Z,9.10
2018-06-15T06:26:54.997Z,10.40
2018-06-15T06:27:54.927Z,10.30
2018-06-15T06:28:54.929Z,10.00
2018-06-15T06:29:54.930Z,10.10
2018-06-15T06:30:54.937Z,10.00
2018-06-15T06:31:54.935Z,9.60
2018-06-15T06:32:54.936Z,10.00
2018-06-15T06:33:54.943Z,9.50
2018-06-15T06:34:54.940Z,9.90
2018-06-15T06:35:54.942Z,9.40
2018-06-15T06:36:54.952Z,9.60
2018-06-15T06:37:54.964Z,9.40
2018-06-15T06:38:54.951Z,9.30
2018-06-15T06:39:54.948Z,10.00
2018-06-15T06:40:54.953Z,9.80
2018-06-15T06:41:54.955Z,9.50
2018-06-15T06:42:54.960Z,9.30
2018-06-15T06:43:54.959Z,9.50
2018-06-15T06:44:54.965Z,9.90
2018-06-15T06:45:54.962Z,10.30
2018-06-15T06:46:54.966Z,9.90
2018-06-15T06:47:54.964Z,10.10
2018-06-15T06:48:54.969Z,10.00
2018-06-15T06:49:54.975Z,10.20
2018-06-15T06:50:54.973Z,10.00
2018-06-15T06:51:54.983Z,9.20
2018-06-15T06:52:54.974Z,9.60
2018-06-15T06:53:54.983Z,10.50
2018-06-15T06:54:54.981Z,10.40
2018-06-15T06:55:54.984Z,10.00
2018-06-15T06:56:54.986Z,10.00
2018-06-15T06:57:54.987Z,9.90
2018-06-15T06:58:54.989Z,9.90
2018-06-15T06:59:54.995Z,9.80
2018-06-15T07:00:54.998Z,10.20
2018-06-15T07:01:54.998Z,9.60
2018-06-15T07:02:54.997Z,9.20
2018-06-15T07:03:55.007Z,10.10
2018-06-15T07:04:55.002Z,9.90
2018-06-15T07:05:55.005Z,9.80
2018-06-15T07:06:55.009Z,9.80
2018-06-15T07:07:55.010Z,9.80
2018-06-15T07:08:55.012Z,9.60
2018-06-15T07:09:55.010Z,10.20
2018-06-15T07:10:55.014Z,10.60
2018-06-15T07:11:55.018Z,10.50
2018-06-15T07:12:55.018Z,11.10
2018-06-15T07:13:55.042Z,10.70
2018-06-15T07:14:55.086Z,10.70
2018-06-15T07:15:55.064Z,10.00
2018-06-15T07:16:55.091Z,9.80
2018-06-15T07:17:55.089Z,10.30
2018-06-15T07:18:55.069Z,10.60
2018-06-15T07:19:55.097Z,10.30
2018-06-15T07:20:55.085Z,10.20
2018-06-15T07:21:55.081Z,10.40
2018-06-15T07:22:55.099Z,10.70
2018-06-15T07:23:55.093Z,10.30
2018-06-15T07:24:55.070Z,9.90
2018-06-15T07:25:55.050Z,9.90
2018-06-15T07:26:55.051Z,10.50
2018-06-15T07:27:55.060Z,10.70
2018-06-15T07:28:55.058Z,10.10
2018-06-15T07:29:55.061Z,9.50
2018-06-15T07:30:55.065Z,10.00
2018-06-15T07:31:55.063Z,9.50
2018-06-15T07:32:55.066Z,9.70
2018-06-15T07:33:55.072Z,10.20
2018-06-15T07:34:55.073Z,10.10
2018-06-15T07:35:55.075Z,9.70
2018-06-15T07:36:55.078Z,9.60
2018-06-15T07:37:55.081Z,8.90
2018-06-15T07:38:55.085Z,10.20
2018-06-15T07:39:55.131Z,10.80
2018-06-15T07:40:55.098Z,11.80
2018-06-15T07:41:55.098Z,11.00
2018-06-15T07:42:55.099Z,10.70
2018-06-15T07:43:55.099Z,10.30
2018-06-15T07:44:55.141Z,9.70
2018-06-15T07:45:55.105Z,9.40
2018-06-15T07:46:55.109Z,9.60
2018-06-15T07:47:55.113Z,10.00
2018-06-15T07:48:55.116Z,10.40
2018-06-15T07:49:55.116Z,9.70
2018-06-15T07:50:55.120Z,10.30
2018-06-15T07:51:55.130Z,9.50
2018-06-15T07:52:55.129Z,9.80
2018-06-15T07:53:55.134Z,9.60
2018-06-15T07:54:55.137Z,9.30
2018-06-15T07:55:55.139Z,9.40
2018-06-15T07:56:55.143Z,9.10
2018-06-15T07:57:55.145Z,8.60
2018-06-15T07:58:55.155Z,9.00
2018-06-15T07:59:55.153Z,8.90
2018-06-15T08:00:55.160Z,8.10
2018-06-15T08:01:55.169Z,9.70
2018-06-15T08:02:55.166Z,8.70
2018-06-15T08:03:55.168Z,9.40
2018-06-15T08:04:55.171Z,9.20
2018-06-15T08:05:55.175Z,9.40
2018-06-15T08:06:55.182Z,9.10
2018-06-15T08:07:55.183Z,8.80
2018-06-15T08:08:55.209Z,8.10
2018-06-15T08:09:55.193Z,7.40
2018-06-15T08:10:55.199Z,6.50
2018-06-15T08:11:55.197Z,6.40
2018-06-15T08:12:55.201Z,6.00
2018-06-15T08:13:55.204Z,6.00
2018-06-15T08:14:55.210Z,7.00
2018-06-15T08:15:55.230Z,6.20
2018-06-15T08:16:55.213Z,6.80
2018-06-15T08:17:55.220Z,7.00
2018-06-15T08:18:55.224Z,6.90
2018-06-15T08:19:55.225Z,8.30
2018-06-15T08:20:55.222Z,7.60
2018-06-15T08:21:55.238Z,7.70
2018-06-15T08:22:55.233Z,7.60
2018-06-15T08:23:55.235Z,7.30
2018-06-15T08:24:55.238Z,7.80
2018-06-15T08:25:55.241Z,8.00
2018-06-15T08:26:55.246Z,7.20
2018-06-15T08:27:55.251Z,7.10
2018-06-15T08:28:55.251Z,7.30
2018-06-15T08:29:55.257Z,7.00
2018-06-15T08:30:55.256Z,6.60
2018-06-15T08:31:55.259Z,6.50
2018-06-15T08:32:55.267Z,6.50
2018-06-15T08:33:55.264Z,6.40
2018-06-15T08:34:55.270Z,6.00
2018-06-15T08:35:55.273Z,6.30
2018-06-15T08:36:55.285Z,6.00
2018-06-15T08:37:55.282Z,6.10
2018-06-15T08:38:55.286Z,5.90
2018-06-15T08:39:55.285Z,5.70
2018-06-15T08:40:55.288Z,6.00
2018-06-15T08:41:55.291Z,6.10
2018-06-15T08:42:55.298Z,6.70
2018-06-15T08:43:55.298Z,6.40
2018-06-15T08:44:55.302Z,6.60
2018-06-15T08:45:55.308Z,7.50
2018-06-15T08:46:55.310Z,7.50
2018-06-15T08:47:55.313Z,7.50
2018-06-15T08:48:55.315Z,7.50
2018-06-15T08:49:55.319Z,6.70
2018-06-15T08:50:55.321Z,6.40
2018-06-15T08:51:55.323Z,6.60
2018-06-15T08:52:55.331Z,6.00
2018-06-15T08:53:55.337Z,6.50
2018-06-15T08:54:55.342Z,6.20
2018-06-15T08:55:55.342Z,6.60
2018-06-15T08:56:55.347Z,6.90
2018-06-15T08:57:55.351Z,6.20
2018-06-15T08:58:55.354Z,6.10
2018-06-15T08:59:55.359Z,6.00
2018-06-15T09:00:55.360Z,6.30
2018-06-15T09:01:55.432Z,6.50
2018-06-15T09:02:55.370Z,6.40
2018-06-15T09:03:55.371Z,6.20
2018-06-15T09:04:55.377Z,6.10
2018-06-15T09:05:55.379Z,5.80
2018-06-15T09:06:55.386Z,5.70
2018-06-15T09:07:55.389Z,5.30
2018-06-15T09:08:55.392Z,4.40
2018-06-15T09:09:55.397Z,4.80
2018-06-15T09:10:55.400Z,4.30
2018-06-15T09:11:55.408Z,4.20
2018-06-15T09:12:55.413Z,3.60
2018-06-15T09:13:55.414Z,3.00
2018-06-15T09:14:55.416Z,3.20
2018-06-15T09:15:55.420Z,2.90
2018-06-15T09:16:55.423Z,3.00
2018-06-15T09:17:55.428Z,3.20
2018-06-15T09:18:55.435Z,3.20
2018-06-15T09:19:55.436Z,2.40
2018-06-15T09:20:55.446Z,2.40
2018-06-15T09:21:55.449Z,2.70
2018-06-15T09:22:55.449Z,2.80
2018-06-15T09:23:55.464Z,3.10
2018-06-15T09:24:55.456Z,3.20
2018-06-15T09:25:55.459Z,2.90
2018-06-15T09:26:55.460Z,2.70
2018-06-15T09:27:55.470Z,2.50
2018-06-15T09:28:55.471Z,2.30
2018-06-15T09:29:55.475Z,1.90
2018-06-15T09:30:55.480Z,1.50
2018-06-15T09:31:55.484Z,1.60
2018-06-15T09:32:55.490Z,1.70
2018-06-15T09:33:55.492Z,2.20
2018-06-15T09:34:55.496Z,2.50
2018-06-15T09:35:55.501Z,2.40
2018-06-15T09:36:55.505Z,3.10
2018-06-15T09:37:55.533Z,2.70
2018-06-15T09:38:55.542Z,2.90
2018-06-15T09:39:55.517Z,3.30
2018-06-15T09:40:55.523Z,3.10
2018-06-15T09:41:55.526Z,2.70
2018-06-15T09:42:55.530Z,3.10
2018-06-15T09:43:55.533Z,2.80
2018-06-15T09:44:55.537Z,3.00
2018-06-15T09:45:55.541Z,3.10
2018-06-15T09:46:55.546Z,2.80
2018-06-15T09:47:55.545Z,2.60
2018-06-15T09:48:55.557Z,2.20
2018-06-15T09:49:55.557Z,2.90
2018-06-15T09:50:55.570Z,2.90
2018-06-15T09:51:55.571Z,3.10
2018-06-15T09:52:55.612Z,2.90
2018-06-15T09:53:55.591Z,2.60
2018-06-15T09:54:55.581Z,2.70
2018-06-15T09:55:55.583Z,2.60
2018-06-15T09:56:55.589Z,2.80
2018-06-15T09:57:55.594Z,2.10
2018-06-15T09:58:55.611Z,2.10
2018-06-15T09:59:55.603Z,2.20
2018-06-15T10:00:55.608Z,2.20
2018-06-15T10:01:55.611Z,2.30
2018-06-15T10:02:55.617Z,2.50
2018-06-15T10:03:55.619Z,3.00
2018-06-15T10:04:55.625Z,2.70
2018-06-15T10:05:55.629Z,2.70
2018-06-15T10:06:55.635Z,2.90
2018-06-15T10:07:55.653Z,2.90
2018-06-15T10:08:55.640Z,3.80
2018-06-15T10:09:55.646Z,3.40
2018-06-15T10:10:55.649Z,3.20
2018-06-15T10:11:55.666Z,3.20
2018-06-15T10:12:55.660Z,3.50
2018-06-15T10:13:55.663Z,3.70
2018-06-15T10:14:55.670Z,3.20
2018-06-15T10:15:55.672Z,3.20
2018-06-15T10:16:55.675Z,3.40
2018-06-15T10:17:55.680Z,3.40
2018-06-15T10:18:55.685Z,3.70
2018-06-15T10:19:55.692Z,3.40
2018-06-15T10:20:55.697Z,3.40
2018-06-15T10:21:55.699Z,3.60
2018-06-15T10:22:55.702Z,3.20
2018-06-15T10:23:55.707Z,3.30
2018-06-15T10:24:55.713Z,3.60
2018-06-15T10:25:55.717Z,3.30
2018-06-15T10:26:55.719Z,2.80
2018-06-15T10:27:55.723Z,2.80
2018-06-15T10:28:55.730Z,2.80
2018-06-15T10:29:55.731Z,2.80
2018-06-15T10:30:55.739Z,2.60
2018-06-15T10:31:55.740Z,3.10
2018-06-15T10:32:55.764Z,2.60
2018-06-15T10:33:55.750Z,3.50
2018-06-15T10:34:55.758Z,3.50
2018-06-15T10:35:55.759Z,3.40
2018-06-15T10:36:55.782Z,3.70
2018-06-15T10:37:55.768Z,4.20
2018-06-15T10:38:55.771Z,3.70
2018-06-15T10:39:55.771Z,5.00
2018-06-15T10:40:55.782Z,4.60
2018-06-15T10:41:55.786Z,4.50
2018-06-15T10:42:55.791Z,4.40
2018-06-15T10:43:55.791Z,4.00
2018-06-15T10:44:55.800Z,3.60
2018-06-15T10:45:55.805Z,3.70
2018-06-15T10:46:55.808Z,3.90
2018-06-15T10:47:55.812Z,4.40
2018-06-15T10:48:55.820Z,3.80
2018-06-15T10:49:55.821Z,3.60
2018-06-15T10:50:55.825Z,4.50
2018-06-15T10:51:55.831Z,4.50
2018-06-15T10:52:55.831Z,4.80
2018-06-15T10:53:55.842Z,4.70
2018-06-15T10:54:55.842Z,4.80
2018-06-15T10:55:55.849Z,4.20
2018-06-15T10:56:55.852Z,4.80
2018-06-15T10:57:55.857Z,4.30
2018-06-15T10:58:55.862Z,5.40
2018-06-15T10:59:55.863Z,4.90
2018-06-15T11:00:55.868Z,4.70
2018-06-15T11:01:55.874Z,5.20
2018-06-15T11:02:55.885Z,6.20
2018-06-15T11:03:55.887Z,5.80
2018-06-15T11:04:55.895Z,6.00
2018-06-15T11:05:55.899Z,6.40
2018-06-15T11:06:55.898Z,5.70
2018-06-15T11:07:55.902Z,5.60
2018-06-15T11:08:55.908Z,5.60
2018-06-15T11:09:55.914Z,5.00
2018-06-15T11:10:55.916Z,4.90
2018-06-15T11:11:55.917Z,5.30
2018-06-15T11:12:55.923Z,5.30
2018-06-15T11:13:55.932Z,4.90
2018-06-15T11:14:55.934Z,4.70
2018-06-15T11:15:55.942Z,5.00
2018-06-15T11:16:55.944Z,5.20
2018-06-15T11:17:55.947Z,5.10
2018-06-15T11:18:55.971Z,4.80
2018-06-15T11:19:56.014Z,4.40
2018-06-15T11:20:55.964Z,4.20
2018-06-15T11:21:55.966Z,4.50
2018-06-15T11:22:55.972Z,4.30
2018-06-15T11:23:55.975Z,4.30
2018-06-15T11:24:55.980Z,3.90
2018-06-15T11:25:55.983Z,3.50
2018-06-15T11:26:55.989Z,3.90
2018-06-15T11:27:55.998Z,3.70
2018-06-15T11:28:55.997Z,3.70
2018-06-15T11:29:56.002Z,3.70
2018-06-15T11:30:56.023Z,3.90
2018-06-15T11:31:56.010Z,3.60
2018-06-15T11:32:56.015Z,3.30
2018-06-15T11:33:56.027Z,3.30
2018-06-15T11:34:56.027Z,3.80
2018-06-15T11:35:56.033Z,4.00
2018-06-15T11:36:56.035Z,4.50
2018-06-15T11:37:56.039Z,4.10
2018-06-15T11:38:56.045Z,4.60
2018-06-15T11:39:56.053Z,4.10
2018-06-15T11:40:56.107Z,3.90
2018-06-15T11:41:56.058Z,3.90
2018-06-15T11:42:56.062Z,3.80
2018-06-15T11:43:56.071Z,3.40
2018-06-15T11:44:56.075Z,3.40
2018-06-15T11:45:56.080Z,3.70
2018-06-15T11:46:56.084Z,3.70
2018-06-15T11:47:56.086Z,3.80
2018-06-15T11:48:56.092Z,3.90
2018-06-15T11:49:56.097Z,4.10
2018-06-15T11:50:56.103Z,4.10
2018-06-15T11:51:56.107Z,4.00
2018-06-15T11:52:56.116Z,3.80
2018-06-15T11:53:56.120Z,4.20
2018-06-15T11:54:56.127Z,3.50
2018-06-15T11:55:56.126Z,3.50
2018-06-15T11:56:56.135Z,3.40
2018-06-15T11:57:56.139Z,3.30
2018-06-15T11:58:56.144Z,3.40
2018-06-15T11:59:56.148Z,3.80
2018-06-15T12:00:56.156Z,3.40
2018-06-15T12:01:56.161Z,3.40
2018-06-15T12:02:56.161Z,3.30
2018-06-15T12:03:56.165Z,2.90
2018-06-15T12:04:56.171Z,3.00
2018-06-15T12:05:56.178Z,3.50
2018-06-15T12:06:56.185Z,3.20
2018-06-15T12:07:56.264Z,3.40
2018-06-15T12:08:56.195Z,3.10
2018-06-15T12:09:56.200Z,3.00
2018-06-15T12:10:56.206Z,3.10
2018-06-15T12:11:56.211Z,3.00
2018-06-15T12:12:56.216Z,2.80
2018-06-15T12:13:56.220Z,2.70
2018-06-15T12:14:56.231Z,2.70
2018-06-15T12:15:56.261Z,2.60
2018-06-15T12:16:56.240Z,2.80
2018-06-15T12:17:56.246Z,2.70
2018-06-15T12:18:56.253Z,2.40
2018-06-15T12:19:56.255Z,2.60
2018-06-15T12:20:56.262Z,2.90
2018-06-15T12:21:56.264Z,2.80
2018-06-15T12:22:56.268Z,2.50
2018-06-15T12:23:56.272Z,2.70
2018-06-15T12:24:56.279Z,2.70
2018-06-15T12:25:56.284Z,2.60
2018-06-15T12:26:56.290Z,2.50
2018-06-15T12:27:56.299Z,2.70
2018-06-15T12:28:56.299Z,2.50
2018-06-15T12:29:56.307Z,2.70
2018-06-15T12:30:56.313Z,2.40
2018-06-15T12:31:56.316Z,2.80
2018-06-15T12:32:56.323Z,2.70
2018-06-15T12:33:56.328Z,2.60
2018-06-15T12:34:56.330Z,2.50
2018-06-15T12:35:56.337Z,2.60
2018-06-15T12:36:56.347Z,2.40
2018-06-15T12:37:56.349Z,2.50
2018-06-15T12:38:56.355Z,2.30
2018-06-15T12:39:56.357Z,2.30
2018-06-15T12:40:56.367Z,2.50
2018-06-15T12:41:56.368Z,2.50
2018-06-15T12:42:56.375Z,2.60
2018-06-15T12:43:56.381Z,2.50
2018-06-15T12:44:56.386Z,2.30
2018-06-15T12:45:56.481Z,2.30
2018-06-15T12:46:56.399Z,2.10
2018-06-15T12:47:56.401Z,2.40
2018-06-15T12:48:56.408Z,2.20
2018-06-15T12:49:56.418Z,2.30
2018-06-15T12:50:56.419Z,2.30
2018-06-15T12:51:56.424Z,2.30
2018-06-15T12:52:56.430Z,2.20
2018-06-15T12:53:56.436Z,2.10
2018-06-15T12:54:56.442Z,2.60
2018-06-15T12:55:56.447Z,2.30
2018-06-15T12:56:56.469Z,2.40
2018-06-15T12:57:56.459Z,2.30
2018-06-15T12:58:56.465Z,2.10
2018-06-15T12:59:56.474Z,2.10
2018-06-15T13:00:56.474Z,2.00
2018-06-15T13:01:56.482Z,2.10
2018-06-15T13:02:56.492Z,2.10
2018-06-15T13:03:56.492Z,2.20
2018-06-15T13:04:56.497Z,2.20
2018-06-15T13:05:56.503Z,2.30
2018-06-15T13:06:56.508Z,2.40
2018-06-15T13:07:56.535Z,2.20
2018-06-15T13:08:56.523Z,2.00
2018-06-15T13:09:56.528Z,2.20
2018-06-15T13:10:56.528Z,2.30
2018-06-15T13:11:56.535Z,2.50
2018-06-15T13:12:56.541Z,2.50